createdAt,value
2019-03-08T00:00:09.960Z,98919.42
2019-03-08T00:02:42.293Z,98920.47
2019-03-08T00:05:13.137Z,98926.61
2019-03-08T00:07:43.874Z,98931.19
2019-03-08T00:10:15.019Z,98936.83
2019-03-08T00:12:45.773Z,98937.77
2019-03-08T00:15:16.904Z,98943.03
2019-03-08T00:17:47.642Z,98934.33
2019-03-08T00:20:18.781Z,98932.86
2019-03-08T00:22:49.542Z,98932.17
2019-03-08T00:25:20.296Z,98932.64
2019-03-08T00:27:51.362Z,98936.06
2019-03-08T00:30:22.240Z,98932.86
2019-03-08T00:32:53.515Z,98928.87
2019-03-08T00:35:24.736Z,98934.02
2019-03-08T00:37:55.704Z,98931.45
2019-03-08T00:40:26.790Z,98944.27
2019-03-08T00:42:57.525Z,98942.25
2019-03-08T00:45:28.517Z,98947.11
2019-03-08T00:47:59.505Z,98951.21
2019-03-08T00:50:31.232Z,98954.27
2019-03-08T00:53:02.037Z,98950.88
2019-03-08T00:55:33.161Z,98964.88
2019-03-08T00:58:04.088Z,98964.77
2019-03-08T01:00:35.149Z,98955.45
2019-03-08T01:03:06.938Z,98957.50
2019-03-08T01:05:37.765Z,98967.75
2019-03-08T01:08:08.805Z,98982.68
2019-03-08T01:10:39.960Z,98980.09
2019-03-08T01:13:10.953Z,98988.94
2019-03-08T01:15:41.790Z,98995.16
2019-03-08T01:18:12.615Z,98996.95
2019-03-08T01:20:43.542Z,98993.98
2019-03-08T01:23:14.386Z,98995.91
2019-03-08T01:25:45.217Z,99007.02
2019-03-08T01:28:16.149Z,99000.90
2019-03-08T01:30:47.114Z,99005.94
2019-03-08T01:33:18.532Z,99002.88
2019-03-08T01:35:49.681Z,98994.86
2019-03-08T01:38:20.688Z,98996.73
2019-03-08T01:40:51.994Z,98996.67
2019-03-08T01:43:22.738Z,99002.57
2019-03-08T01:45:54.244Z,99009.27
2019-03-08T01:48:24.981Z,99008.11
2019-03-08T01:50:55.986Z,99022.87
2019-03-08T01:53:26.964Z,99024.85
2019-03-08T01:55:58.034Z,99025.57
2019-03-08T01:58:29.225Z,99033.34
2019-03-08T02:01:00.207Z,99028.84
2019-03-08T02:03:31.223Z,99028.95
2019-03-08T02:06:02.041Z,99037.45
2019-03-08T02:08:33.188Z,99036.84
2019-03-08T02:11:04.222Z,99031.30
2019-03-08T02:13:35.205Z,99036.98
2019-03-08T02:16:06.044Z,99027.77
2019-03-08T02:18:37.310Z,99028.62
2019-03-08T02:21:08.355Z,99024.74
2019-03-08T02:23:39.434Z,99032.63
2019-03-08T02:26:10.701Z,99035.30
2019-03-08T02:28:41.982Z,99033.06
2019-03-08T02:31:13.088Z,99033.89
2019-03-08T02:33:44.145Z,99033.42
2019-03-08T02:36:15.397Z,99029.89
2019-03-08T02:38:46.513Z,99038.42
2019-03-08T02:41:17.328Z,99039.55
2019-03-08T02:43:48.297Z,99044.18
2019-03-08T02:46:19.397Z,99038.75
2019-03-08T02:48:50.435Z,99037.67
2019-03-08T02:51:21.682Z,99034.58
2019-03-08T02:53:52.426Z,99039.98
2019-03-08T02:56:24.482Z,99045.55
2019-03-08T02:58:55.605Z,99041.99
2019-03-08T03:01:26.649Z,99047.75
2019-03-08T03:03:57.996Z,99041.27
2019-03-08T03:06:28.754Z,99041.27
2019-03-08T03:08:59.715Z,99053.08
2019-03-08T03:11:31.150Z,99044.84
2019-03-08T03:14:02.479Z,99055.09
2019-03-08T03:16:33.729Z,99045.80
2019-03-08T03:19:04.856Z,99059.27
2019-03-08T03:21:36.351Z,99054.19
2019-03-08T03:24:07.759Z,99058.66
2019-03-08T03:26:39.227Z,99058.08
2019-03-08T03:29:10.727Z,99065.02
2019-03-08T03:31:41.964Z,99079.74
2019-03-08T03:34:12.961Z,99069.16
2019-03-08T03:36:44.384Z,99069.17
2019-03-08T03:39:18.549Z,99082.38
2019-03-08T03:41:49.825Z,99072.70
2019-03-08T03:44:20.900Z,99089.42
2019-03-08T03:46:52.238Z,99079.54
2019-03-08T03:49:22.979Z,99084.72
2019-03-08T03:51:54.204Z,99081.66
2019-03-08T03:54:25.466Z,99082.95
2019-03-08T03:56:57.312Z,99091.92
2019-03-08T03:59:28.280Z,99090.84
2019-03-08T04:01:59.113Z,99087.32
2019-03-08T04:04:31.130Z,99096.06
2019-03-08T04:07:01.884Z,99105.47
2019-03-08T04:09:33.846Z,99106.17
2019-03-08T04:12:05.027Z,99107.95
2019-03-08T04:14:36.091Z,99113.95
2019-03-08T04:17:07.076Z,99113.10
2019-03-08T04:19:37.836Z,99115.20
2019-03-08T04:22:08.853Z,99120.97
2019-03-08T04:24:39.774Z,99120.52
2019-03-08T04:27:10.807Z,99124.64
2019-03-08T04:29:41.560Z,99130.19
2019-03-08T04:32:12.316Z,99133.39
2019-03-08T04:34:43.372Z,99128.55
2019-03-08T04:37:14.646Z,99138.56
2019-03-08T04:39:45.689Z,99117.37
2019-03-08T04:42:16.445Z,99133.27
2019-03-08T04:44:48.164Z,99133.48
2019-03-08T04:47:19.161Z,99133.25
2019-03-08T04:49:50.782Z,99141.95
2019-03-08T04:52:21.841Z,99149.61
2019-03-08T04:54:52.679Z,99141.84
2019-03-08T04:57:23.680Z,99155.82
2019-03-08T04:59:54.659Z,99161.33
2019-03-08T05:02:25.649Z,99163.48
2019-03-08T05:04:56.404Z,99165.84
2019-03-08T05:07:27.388Z,99173.62
2019-03-08T05:09:58.231Z,99175.39
2019-03-08T05:12:31.002Z,99178.34
2019-03-08T05:15:02.256Z,99171.17
2019-03-08T05:17:33.370Z,99167.39
2019-03-08T05:20:04.818Z,99177.27
2019-03-08T05:22:35.589Z,99182.59
2019-03-08T05:25:06.741Z,99179.53
2019-03-08T05:27:37.939Z,99187.17
2019-03-08T05:30:09.503Z,99187.41
2019-03-08T05:32:40.331Z,99190.95
2019-03-08T05:35:11.474Z,99194.23
2019-03-08T05:37:42.514Z,99204.59
2019-03-08T05:40:14.089Z,99199.98
2019-03-08T05:42:45.425Z,99217.31
2019-03-08T05:45:16.453Z,99216.84
2019-03-08T05:47:47.224Z,99221.20
2019-03-08T05:50:18.257Z,99228.13
2019-03-08T05:52:49.257Z,99232.84
2019-03-08T05:55:20.226Z,99244.16
2019-03-08T05:57:50.987Z,99243.44
2019-03-08T06:00:31.313Z,99234.73
2019-03-08T06:02:54.878Z,99252.27
2019-03-08T06:05:25.874Z,99256.88
2019-03-08T06:07:56.880Z,99260.53
2019-03-08T06:10:32.156Z,99259.11
2019-03-08T06:13:03.299Z,99263.13
2019-03-08T06:15:34.405Z,99267.94
2019-03-08T06:18:05.273Z,99273.95
2019-03-08T06:20:36.436Z,99276.30
2019-03-08T06:23:07.524Z,99287.96
2019-03-08T06:25:38.515Z,99288.66
2019-03-08T06:28:10.025Z,99299.75
2019-03-08T06:30:41.341Z,99296.80
2019-03-08T06:33:12.416Z,99307.48
2019-03-08T06:35:43.587Z,99309.38
2019-03-08T06:38:14.597Z,99319.37
2019-03-08T06:40:45.644Z,99324.31
2019-03-08T06:43:16.602Z,99322.09
2019-03-08T06:45:47.438Z,99333.84
2019-03-08T06:48:18.308Z,99329.86
2019-03-08T06:50:49.734Z,99329.50
2019-03-08T06:53:20.802Z,99332.23
2019-03-08T06:55:51.793Z,99346.37
2019-03-08T06:58:33.868Z,99355.12
2019-03-08T07:01:29.920Z,99358.64
2019-03-08T07:04:00.804Z,99353.69
2019-03-08T07:06:31.620Z,99372.75
2019-03-08T07:09:02.593Z,99373.58
2019-03-08T07:11:35.010Z,99372.52
2019-03-08T07:14:06.069Z,99371.27
2019-03-08T07:16:36.895Z,99367.88
2019-03-08T07:19:07.646Z,99365.69
2019-03-08T07:22:03.989Z,99376.88
2019-03-08T07:24:55.885Z,99377.16
2019-03-08T07:27:40.337Z,99383.28
2019-03-08T07:30:57.979Z,99388.37
2019-03-08T07:34:17.358Z,99397.67
2019-03-08T07:37:31.723Z,99388.94
2019-03-08T07:40:22.797Z,99388.59
2019-03-08T07:43:34.270Z,99404.98
2019-03-08T07:46:32.373Z,99410.75
2019-03-08T07:49:31.718Z,99413.83
2019-03-08T07:52:21.149Z,99419.92
2019-03-08T07:55:07.838Z,99431.28
2019-03-08T07:57:52.537Z,99450.11
2019-03-08T08:00:31.222Z,99444.33
2019-03-08T08:03:08.921Z,99449.84
2019-03-08T08:05:57.624Z,99451.23
2019-03-08T08:08:51.686Z,99455.16
2019-03-08T08:11:42.538Z,99462.38
2019-03-08T08:14:39.982Z,99463.34
2019-03-08T08:17:27.908Z,99475.97
2019-03-08T08:20:23.515Z,99473.71
2019-03-08T08:23:00.409Z,99483.63
2019-03-08T08:25:52.609Z,99490.94
2019-03-08T08:28:51.950Z,99492.37
2019-03-08T08:31:40.394Z,99502.05
2019-03-08T08:34:45.363Z,99507.00
2019-03-08T08:37:27.555Z,99499.22
2019-03-08T08:40:20.477Z,99518.44
2019-03-08T08:42:58.414Z,99522.23
2019-03-08T08:46:00.464Z,99515.17
2019-03-08T08:48:53.515Z,99513.37
2019-03-08T08:51:55.358Z,99518.70
2019-03-08T08:54:36.319Z,99531.67
2019-03-08T08:57:29.998Z,99528.37
2019-03-08T09:00:23.719Z,99544.55
2019-03-08T09:03:13.617Z,99535.23
2019-03-08T09:06:05.874Z,99539.23
2019-03-08T09:08:58.643Z,99541.11
2019-03-08T09:11:44.538Z,99540.86
2019-03-08T09:14:20.177Z,99554.30
2019-03-08T09:16:57.735Z,99555.73
2019-03-08T09:19:36.360Z,99549.02
2019-03-08T09:22:16.370Z,99551.24
2019-03-08T09:25:06.284Z,99552.08
2019-03-08T09:27:46.369Z,99554.44
2019-03-08T09:30:32.645Z,99559.50
2019-03-08T09:33:40.351Z,99568.95
2019-03-08T09:36:26.272Z,99556.20
2019-03-08T09:39:19.702Z,99559.39
2019-03-08T09:41:56.821Z,99563.19
2019-03-08T09:44:45.952Z,99571.91
2019-03-08T09:47:35.840Z,99571.91
2019-03-08T09:50:32.262Z,99573.80
2019-03-08T09:53:32.772Z,99582.42
2019-03-08T09:56:21.958Z,99585.58
2019-03-08T09:59:27.466Z,99584.66
2019-03-08T10:02:20.228Z,99587.58
2019-03-08T10:05:06.054Z,99585.72
2019-03-08T10:07:42.342Z,99586.88
2019-03-08T10:10:23.796Z,99590.67
2019-03-08T10:13:05.453Z,99590.67
2019-03-08T10:15:42.530Z,99595.70
2019-03-08T10:18:21.658Z,99608.70
2019-03-08T10:21:16.822Z,99610.19
2019-03-08T10:24:12.698Z,99620.56
2019-03-08T10:27:14.655Z,99616.91
2019-03-08T10:30:04.943Z,99620.39
2019-03-08T10:32:44.854Z,99622.06
2019-03-08T10:35:33.609Z,99619.72
2019-03-08T10:38:22.289Z,99634.47
2019-03-08T10:41:04.695Z,99640.61
2019-03-08T10:43:42.033Z,99644.20
2019-03-08T10:46:38.137Z,99650.00
2019-03-08T10:49:27.888Z,99652.59
2019-03-08T10:52:04.954Z,99657.11
2019-03-08T10:54:51.565Z,99656.22
2019-03-08T10:57:40.476Z,99670.01
2019-03-08T11:00:34.732Z,99671.50
2019-03-08T11:03:12.070Z,99684.02
2019-03-08T11:06:05.191Z,99686.31
2019-03-08T11:08:50.901Z,99692.78
2019-03-08T11:11:40.741Z,99695.53
2019-03-08T11:14:20.300Z,99701.16
2019-03-08T11:17:07.448Z,99704.52
2019-03-08T11:20:06.538Z,99707.72
2019-03-08T11:22:48.283Z,99708.69
2019-03-08T11:25:35.195Z,99713.72
2019-03-08T11:28:11.541Z,99722.27
2019-03-08T11:31:13.953Z,99727.72
2019-03-08T11:34:04.029Z,99723.21
2019-03-08T11:36:39.403Z,99729.06
2019-03-08T11:39:36.856Z,99728.86
2019-03-08T11:42:15.694Z,99725.89
2019-03-08T11:45:05.914Z,99731.36
2019-03-08T11:47:56.076Z,99720.83
2019-03-08T11:50:42.158Z,99727.17
2019-03-08T11:53:30.929Z,99724.45
2019-03-08T11:56:29.731Z,99715.96
2019-03-08T11:59:22.590Z,99732.81
2019-03-08T12:02:02.914Z,99733.36
2019-03-08T12:04:44.670Z,99735.60
2019-03-08T12:07:25.600Z,99729.97
2019-03-08T12:10:33.878Z,99732.94
2019-03-08T12:13:13.586Z,99735.19
2019-03-08T12:15:55.080Z,99720.87
2019-03-08T12:18:39.107Z,99736.70
2019-03-08T12:21:44.116Z,99740.43
2019-03-08T12:24:39.649Z,99734.44
2019-03-08T12:27:23.013Z,99743.30
2019-03-08T12:30:00.386Z,99748.72
2019-03-08T12:32:40.555Z,99755.09
2019-03-08T12:35:34.452Z,99745.56
2019-03-08T12:38:23.666Z,99755.98
2019-03-08T12:41:12.376Z,99736.59
2019-03-08T12:44:08.359Z,99749.12
2019-03-08T12:46:58.691Z,99743.91
2019-03-08T12:49:49.426Z,99749.16
2019-03-08T12:52:45.633Z,99747.39
2019-03-08T12:55:33.456Z,99752.08
2019-03-08T12:58:17.217Z,99756.91
2019-03-08T13:01:22.233Z,99756.70
2019-03-08T13:04:18.114Z,99762.77
2019-03-08T13:07:04.141Z,99768.20
2019-03-08T13:09:50.575Z,99760.62
2019-03-08T13:12:21.764Z,99762.25
2019-03-08T13:14:52.531Z,99766.38
2019-03-08T13:17:23.624Z,99766.81
2019-03-08T13:19:54.743Z,99778.23
2019-03-08T13:22:26.082Z,99786.13
2019-03-08T13:24:56.825Z,99791.70
2019-03-08T13:27:27.954Z,99790.63
2019-03-08T13:29:59.751Z,99797.12
2019-03-08T13:32:30.600Z,99793.56
2019-03-08T13:35:02.169Z,99791.08
2019-03-08T13:37:32.946Z,99798.95
2019-03-08T13:40:04.691Z,99806.81
2019-03-08T13:42:35.833Z,99797.52
2019-03-08T13:45:08.553Z,99802.45
2019-03-08T13:47:40.272Z,99809.30
2019-03-08T13:50:11.848Z,99806.86
2019-03-08T13:52:42.858Z,99811.79
2019-03-08T13:55:13.702Z,99806.84
2019-03-08T13:57:44.838Z,99807.09
2019-03-08T14:00:15.981Z,99817.00
2019-03-08T14:02:46.968Z,99821.82
2019-03-08T14:05:18.008Z,99813.69
2019-03-08T14:07:49.219Z,99819.19
2019-03-08T14:10:20.364Z,99812.85
2019-03-08T14:12:51.535Z,99816.69
2019-03-08T14:15:22.493Z,99815.47
2019-03-08T14:17:53.387Z,99817.14
2019-03-08T14:20:24.501Z,99816.09
2019-03-08T14:22:55.564Z,99815.36
2019-03-08T14:25:27.609Z,99809.82
2019-03-08T14:27:58.904Z,99815.61
2019-03-08T14:30:32.191Z,99818.57
2019-03-08T14:33:04.114Z,99818.77
2019-03-08T14:35:35.119Z,99818.64
2019-03-08T14:38:07.787Z,99822.44
2019-03-08T14:40:46.987Z,99824.35
2019-03-08T14:43:53.600Z,99817.09
2019-03-08T14:46:43.850Z,99821.25
2019-03-08T14:49:14.838Z,99825.27
2019-03-08T14:51:48.282Z,99821.55
2019-03-08T14:54:18.204Z,99823.48
2019-03-08T14:56:49.054Z,99821.84
2019-03-08T14:59:20.132Z,99824.09
2019-03-08T15:01:51.210Z,99814.05
2019-03-08T15:04:22.110Z,99814.08
2019-03-08T15:06:53.857Z,99812.52
2019-03-08T15:09:29.053Z,99815.36
2019-03-08T15:11:59.500Z,99815.47
2019-03-08T15:14:33.897Z,99825.10
2019-03-08T15:17:09.096Z,99825.94
2019-03-08T15:19:36.252Z,99833.92
2019-03-08T15:22:08.253Z,99827.23
2019-03-08T15:24:39.750Z,99830.16
2019-03-08T15:27:10.505Z,99833.27
2019-03-08T15:29:41.480Z,99832.10
2019-03-08T15:32:12.485Z,99836.20
2019-03-08T15:34:43.397Z,99832.63
2019-03-08T15:37:14.573Z,99823.25
2019-03-08T15:39:45.554Z,99832.63
2019-03-08T15:42:16.450Z,99828.58
2019-03-08T15:44:47.484Z,99827.47
2019-03-08T15:47:23.563Z,99826.48
2019-03-08T15:49:51.895Z,99830.12
2019-03-08T15:52:22.740Z,99823.02
2019-03-08T15:54:53.584Z,99834.78
2019-03-08T15:57:24.648Z,99834.32
2019-03-08T15:59:56.180Z,99830.06
2019-03-08T16:02:27.519Z,99832.66
2019-03-08T16:04:58.369Z,99826.90
2019-03-08T16:07:29.118Z,99835.88
2019-03-08T16:10:00.079Z,99832.25
2019-03-08T16:12:30.921Z,99829.30
2019-03-08T16:15:02.526Z,99818.73
2019-03-08T16:17:33.745Z,99825.73
2019-03-08T16:20:05.482Z,99826.26
2019-03-08T16:22:36.309Z,99824.31
2019-03-08T16:25:08.751Z,99823.84
2019-03-08T16:27:39.905Z,99830.52
2019-03-08T16:30:24.940Z,99827.14
2019-03-08T16:33:02.728Z,99826.69
2019-03-08T16:35:45.862Z,99821.30
2019-03-08T16:38:29.558Z,99824.59
2019-03-08T16:41:22.137Z,99825.75
2019-03-08T16:44:06.054Z,99827.98
2019-03-08T16:46:53.045Z,99837.30
2019-03-08T16:49:30.695Z,99841.03
2019-03-08T16:52:23.223Z,99840.95
2019-03-08T16:55:01.449Z,99831.78
2019-03-08T16:57:43.721Z,99849.48
2019-03-08T17:00:40.425Z,99848.99
2019-03-08T17:03:27.956Z,99847.39
2019-03-08T17:06:16.160Z,99850.17
2019-03-08T17:09:11.610Z,99849.16
2019-03-08T17:11:51.276Z,99844.86
2019-03-08T17:14:38.832Z,99850.59
2019-03-08T17:17:27.536Z,99846.80
2019-03-08T17:20:05.410Z,99853.21
2019-03-08T17:22:49.066Z,99856.53
2019-03-08T17:25:33.170Z,99866.30
2019-03-08T17:28:13.881Z,99869.24
2019-03-08T17:30:51.008Z,99866.23
2019-03-08T17:33:37.264Z,99854.50
2019-03-08T17:36:17.940Z,99855.71
2019-03-08T17:39:03.235Z,99857.44
2019-03-08T17:41:55.101Z,99862.56
2019-03-08T17:44:43.835Z,99864.57
2019-03-08T17:47:22.101Z,99868.27
2019-03-08T17:50:16.211Z,99861.30
2019-03-08T17:53:06.287Z,99867.06
2019-03-08T17:56:03.046Z,99874.19
2019-03-08T17:58:56.056Z,99881.22
2019-03-08T18:01:42.701Z,99881.78
2019-03-08T18:04:42.008Z,99890.55
2019-03-08T18:07:34.969Z,99895.26
2019-03-08T18:10:22.966Z,99900.61
2019-03-08T18:13:21.627Z,99906.98
2019-03-08T18:16:11.761Z,99908.92
2019-03-08T18:19:03.413Z,99911.51
2019-03-08T18:21:41.982Z,99914.28
2019-03-08T18:24:30.435Z,99913.56
2019-03-08T18:27:32.490Z,99915.39
2019-03-08T18:30:28.314Z,99914.48
2019-03-08T18:33:22.347Z,99912.82
2019-03-08T18:36:02.465Z,99903.73
2019-03-08T18:38:51.337Z,99904.83
2019-03-08T18:41:42.925Z,99903.47
2019-03-08T18:44:31.622Z,99905.28
2019-03-08T18:47:27.001Z,99911.48
2019-03-08T18:50:15.444Z,99906.97
2019-03-08T18:53:11.270Z,99912.44
2019-03-08T18:56:04.430Z,99909.47
2019-03-08T18:58:51.053Z,99907.92
2019-03-08T19:01:53.059Z,99909.48
2019-03-08T19:04:42.067Z,99904.40
2019-03-08T19:07:32.241Z,99897.07
2019-03-08T19:10:22.546Z,99893.61
2019-03-08T19:13:12.399Z,99910.27
2019-03-08T19:16:03.281Z,99904.05
2019-03-08T19:18:44.177Z,99911.34
2019-03-08T19:21:24.055Z,99916.69
2019-03-08T19:24:23.124Z,99915.25
2019-03-08T19:27:05.801Z,99925.56
2019-03-08T19:29:52.720Z,99928.48
2019-03-08T19:32:45.603Z,99931.69
2019-03-08T19:35:36.789Z,99934.22
2019-03-08T19:38:16.496Z,99924.00
2019-03-08T19:41:05.741Z,99928.86
2019-03-08T19:44:04.640Z,99933.13
2019-03-08T19:46:52.962Z,99927.19
2019-03-08T19:49:33.247Z,99930.99
2019-03-08T19:52:23.297Z,99929.78
2019-03-08T19:55:25.285Z,99934.15
2019-03-08T19:58:24.711Z,99935.81
2019-03-08T20:01:13.231Z,99931.83
2019-03-08T20:04:05.987Z,99939.63
2019-03-08T20:06:45.489Z,99937.67
2019-03-08T20:09:28.968Z,99943.08
2019-03-08T20:12:11.707Z,99950.19
2019-03-08T20:14:48.285Z,99945.19
2019-03-08T20:17:41.424Z,99938.70
2019-03-08T20:20:43.793Z,99950.53
2019-03-08T20:23:33.566Z,99944.26
2019-03-08T20:26:26.500Z,99944.31
2019-03-08T20:29:16.523Z,99946.45
2019-03-08T20:32:12.555Z,99939.80
2019-03-08T20:35:01.195Z,99930.44
2019-03-08T20:37:38.979Z,99931.77
2019-03-08T20:40:28.962Z,99932.97
2019-03-08T20:43:13.517Z,99924.69
2019-03-08T20:45:56.733Z,99928.24
2019-03-08T20:48:28.742Z,99924.20
2019-03-08T20:50:59.717Z,99922.31
2019-03-08T20:53:30.759Z,99929.17
2019-03-08T20:56:02.343Z,99920.34
2019-03-08T20:58:34.334Z,99924.72
2019-03-08T21:01:05.476Z,99926.48
2019-03-08T21:03:36.837Z,99909.30
2019-03-08T21:06:08.300Z,99913.72
2019-03-08T21:08:39.581Z,99917.62
2019-03-08T21:11:10.441Z,99911.96
2019-03-08T21:13:41.606Z,99910.91
2019-03-08T21:16:12.948Z,99912.42
2019-03-08T21:18:44.355Z,99914.31
2019-03-08T21:21:15.265Z,99908.59
2019-03-08T21:23:46.361Z,99903.77
2019-03-08T21:26:17.374Z,99904.30
2019-03-08T21:28:48.340Z,99910.66
2019-03-08T21:31:19.414Z,99906.55
2019-03-08T21:33:50.156Z,99902.10
2019-03-08T21:36:21.246Z,99909.11
2019-03-08T21:38:52.124Z,99912.27
2019-03-08T21:41:22.948Z,99906.45
2019-03-08T21:43:53.804Z,99910.14
2019-03-08T21:46:24.564Z,99901.02
2019-03-08T21:48:55.609Z,99902.78
2019-03-08T21:51:26.913Z,99889.34
2019-03-08T21:53:58.117Z,99897.06
2019-03-08T21:56:29.240Z,99898.02
2019-03-08T21:59:00.282Z,99893.76
2019-03-08T22:01:31.344Z,99893.52
2019-03-08T22:04:11.326Z,99891.48
2019-03-08T22:06:42.412Z,99882.67
2019-03-08T22:09:32.847Z,99888.72
2019-03-08T22:12:03.798Z,99888.35
2019-03-08T22:14:34.707Z,99885.14
2019-03-08T22:17:05.546Z,99894.84
2019-03-08T22:19:36.687Z,99880.88
2019-03-08T22:22:08.165Z,99880.32
2019-03-08T22:24:39.388Z,99890.14
2019-03-08T22:27:10.377Z,99881.68
2019-03-08T22:29:41.185Z,99872.35
2019-03-08T22:32:16.239Z,99865.50
2019-03-08T22:34:47.063Z,99860.12
2019-03-08T22:37:17.895Z,99852.31
2019-03-08T22:39:48.854Z,99849.24
2019-03-08T22:42:19.618Z,99851.22
2019-03-08T22:44:50.927Z,99848.98
2019-03-08T22:47:22.328Z,99835.61
2019-03-08T22:49:53.070Z,99840.17
2019-03-08T22:52:24.061Z,99840.97
2019-03-08T22:54:55.180Z,99837.73
2019-03-08T22:57:26.380Z,99831.84
2019-03-08T22:59:57.408Z,99827.07
2019-03-08T23:02:28.460Z,99833.22
2019-03-08T23:04:59.574Z,99822.05
2019-03-08T23:07:30.698Z,99816.87
2019-03-08T23:10:01.558Z,99815.08
2019-03-08T23:12:34.019Z,99815.36
2019-03-08T23:15:05.195Z,99803.32
2019-03-08T23:17:36.258Z,99811.31
2019-03-08T23:20:07.594Z,99798.44
2019-03-08T23:22:38.605Z,99784.12
2019-03-08T23:25:09.435Z,99791.64
2019-03-08T23:27:45.359Z,99798.28
2019-03-08T23:30:22.753Z,99798.33
2019-03-08T23:32:54.933Z,99799.06
2019-03-08T23:35:25.916Z,99805.15
2019-03-08T23:37:58.129Z,99805.64
2019-03-08T23:40:29.191Z,99808.50
2019-03-08T23:43:00.218Z,99807.17
2019-03-08T23:45:31.200Z,99803.37
2019-03-08T23:48:02.707Z,99796.52
2019-03-08T23:50:33.677Z,99803.08
2019-03-08T23:53:04.815Z,99802.58
2019-03-08T23:55:35.777Z,99791.25
2019-03-08T23:58:06.831Z,99801.70
